Holgate, Ohio
Current Conditions -  °F | °C
As of 11:53 AM on Friday 24 Oct 2014 (Local Time) from KDFI Reporting Station
Overcast Overcast  
Wind Chill: 53°   Ceiling: 4400
Heat Index: 53°   Visibility: 8mi
Dew Point: 44°   Wind: 5mph
Humidity: 71%   Direction: 180°S
Pressure: 30.09"   Gusts: NA
Location:  41.25°N, 84.13°W
Report Text: KDFI 241553Z AUTO 18004KT 8SM OVC044 12/07 A3009 RMK AO2 SLP191 T01170067
Loading
Personal Weather Stations






























Interactive Weather Map
Tropical Storm Tracking
New forecast layout! Learn more

10-Day Weather Forecast

Advertisements
Track Severe Weather on mobile